Terminal Aerodrome Forecast
Issued by NWS Amarillo, TX

Home | Current Version | Previous Version | Text Only | Print | Product List | Glossary On
Versions: 1 2 3 4 5 6 7 8 9 10 11 12 13 14 15
000
FTUS44 KAMA 071700
TAFGUY
TAF
KGUY 071720Z 0718/0818 03015KT 2SM HZ OVC025
      TEMPO 0718/0722 3SM HZ OVC050
     FM072200 06008KT 3SM HZ OVC050
     FM080200 12008KT 2SM HZ OVC008
     FM081500 16008KT P6SM OVC015=

USA.gov is the U.S. government's official web portal to all federal, state and local government web resources and services.